sensor_id;sensor_type;location;lat;lon;timestamp;temperature;humidity
9305;DHT22;4690;52.422;13.486;2023-04-29T00:05:14;11.80;99.90
9305;DHT22;4690;52.422;13.486;2023-04-29T00:07:40;11.90;99.90
9305;DHT22;4690;52.422;13.486;2023-04-29T00:10:07;11.90;99.90
9305;DHT22;4690;52.422;13.486;2023-04-29T00:12:33;11.80;99.90
9305;DHT22;4690;52.422;13.486;2023-04-29T00:14:59;11.80;99.90
9305;DHT22;4690;52.422;13.486;2023-04-29T00:17:27;11.80;99.90
9305;DHT22;4690;52.422;13.486;2023-04-29T00:19:53;11.80;99.90
9305;DHT22;4690;52.422;13.486;2023-04-29T00:22:19;11.90;99.90
9305;DHT22;4690;52.422;13.486;2023-04-29T00:24:47;11.80;99.90
9305;DHT22;4690;52.422;13.486;2023-04-29T00:27:12;11.80;99.90
9305;DHT22;4690;52.422;13.486;2023-04-29T00:29:38;11.80;99.90
9305;DHT22;4690;52.422;13.486;2023-04-29T00:32:04;11.80;99.90
9305;DHT22;4690;52.422;13.486;2023-04-29T00:34:30;11.80;99.90
9305;DHT22;4690;52.422;13.486;2023-04-29T00:36:55;11.80;99.90
9305;DHT22;4690;52.422;13.486;2023-04-29T00:39:21;11.80;99.90
9305;DHT22;4690;52.422;13.486;2023-04-29T00:41:47;11.80;99.90
9305;DHT22;4690;52.422;13.486;2023-04-29T00:44:13;11.80;99.90
9305;DHT22;4690;52.422;13.486;2023-04-29T00:46:39;11.70;99.90
9305;DHT22;4690;52.422;13.486;2023-04-29T00:49:05;11.70;99.90
9305;DHT22;4690;52.422;13.486;2023-04-29T00:51:32;11.70;99.90
9305;DHT22;4690;52.422;13.486;2023-04-29T00:53:59;11.70;99.90
9305;DHT22;4690;52.422;13.486;2023-04-29T00:56:25;11.60;99.90
9305;DHT22;4690;52.422;13.486;2023-04-29T00:58:56;11.60;99.90
9305;DHT22;4690;52.422;13.486;2023-04-29T01:01:23;11.60;99.90
9305;DHT22;4690;52.422;13.486;2023-04-29T01:03:49;11.60;99.90
9305;DHT22;4690;52.422;13.486;2023-04-29T01:11:41;11.60;99.90
9305;DHT22;4690;52.422;13.486;2023-04-29T01:14:17;11.70;99.90
9305;DHT22;4690;52.422;13.486;2023-04-29T01:16:48;11.60;99.90
9305;DHT22;4690;52.422;13.486;2023-04-29T01:22:07;11.60;99.90
9305;DHT22;4690;52.422;13.486;2023-04-29T01:24:33;11.50;99.90
9305;DHT22;4690;52.422;13.486;2023-04-29T01:27:08;11.40;99.90
9305;DHT22;4690;52.422;13.486;2023-04-29T01:38:44;11.20;99.90
9305;DHT22;4690;52.422;13.486;2023-04-29T01:41:38;10.90;99.90
9305;DHT22;4690;52.422;13.486;2023-04-29T01:44:14;10.70;99.90
9305;DHT22;4690;52.422;13.486;2023-04-29T01:46:50;10.70;99.90
9305;DHT22;4690;52.422;13.486;2023-04-29T01:49:27;10.70;99.90
9305;DHT22;4690;52.422;13.486;2023-04-29T01:51:53;10.60;99.90
9305;DHT22;4690;52.422;13.486;2023-04-29T01:54:20;10.60;99.90
9305;DHT22;4690;52.422;13.486;2023-04-29T01:56:47;10.60;99.90
9305;DHT22;4690;52.422;13.486;2023-04-29T01:59:13;10.60;99.90
9305;DHT22;4690;52.422;13.486;2023-04-29T02:01:39;10.60;99.90
9305;DHT22;4690;52.422;13.486;2023-04-29T02:04:05;10.60;99.90
9305;DHT22;4690;52.422;13.486;2023-04-29T02:06:30;10.60;99.90
9305;DHT22;4690;52.422;13.486;2023-04-29T02:08:57;10.60;99.90
9305;DHT22;4690;52.422;13.486;2023-04-29T02:11:23;10.60;99.90
9305;DHT22;4690;52.422;13.486;2023-04-29T02:13:49;10.50;99.90
9305;DHT22;4690;52.422;13.486;2023-04-29T02:16:15;10.50;99.90
9305;DHT22;4690;52.422;13.486;2023-04-29T02:18:41;10.50;99.90
9305;DHT22;4690;52.422;13.486;2023-04-29T02:21:07;10.50;99.90
9305;DHT22;4690;52.422;13.486;2023-04-29T02:23:34;10.40;99.90
9305;DHT22;4690;52.422;13.486;2023-04-29T02:26:00;10.30;99.90
9305;DHT22;4690;52.422;13.486;2023-04-29T02:28:26;10.40;99.90
9305;DHT22;4690;52.422;13.486;2023-04-29T02:30:52;10.40;99.90
9305;DHT22;4690;52.422;13.486;2023-04-29T02:33:19;10.50;99.90
9305;DHT22;4690;52.422;13.486;2023-04-29T02:35:45;10.40;99.90
9305;DHT22;4690;52.422;13.486;2023-04-29T02:38:11;10.50;99.90
9305;DHT22;4690;52.422;13.486;2023-04-29T02:40:41;10.50;99.90
9305;DHT22;4690;52.422;13.486;2023-04-29T02:43:08;10.50;99.90
9305;DHT22;4690;52.422;13.486;2023-04-29T02:45:34;10.40;99.90
9305;DHT22;4690;52.422;13.486;2023-04-29T02:48:00;10.50;99.90
9305;DHT22;4690;52.422;13.486;2023-04-29T02:50:26;10.40;99.90
9305;DHT22;4690;52.422;13.486;2023-04-29T02:52:53;10.40;99.90
9305;DHT22;4690;52.422;13.486;2023-04-29T02:55:19;10.40;99.90
9305;DHT22;4690;52.422;13.486;2023-04-29T02:57:45;10.30;99.90
9305;DHT22;4690;52.422;13.486;2023-04-29T03:00:11;10.40;99.90
9305;DHT22;4690;52.422;13.486;2023-04-29T03:02:37;10.40;99.90
9305;DHT22;4690;52.422;13.486;2023-04-29T03:05:04;10.30;99.90
9305;DHT22;4690;52.422;13.486;2023-04-29T03:07:31;10.30;99.90
9305;DHT22;4690;52.422;13.486;2023-04-29T03:09:56;10.40;99.90
9305;DHT22;4690;52.422;13.486;2023-04-29T03:12:23;10.40;99.90
9305;DHT22;4690;52.422;13.486;2023-04-29T03:14:49;10.30;99.90
9305;DHT22;4690;52.422;13.486;2023-04-29T03:17:16;10.40;99.90
9305;DHT22;4690;52.422;13.486;2023-04-29T03:19:42;10.40;99.90
9305;DHT22;4690;52.422;13.486;2023-04-29T03:22:08;10.40;99.90
9305;DHT22;4690;52.422;13.486;2023-04-29T03:24:36;10.40;99.90
9305;DHT22;4690;52.422;13.486;2023-04-29T03:27:03;10.40;99.90
9305;DHT22;4690;52.422;13.486;2023-04-29T03:29:32;10.40;99.90
9305;DHT22;4690;52.422;13.486;2023-04-29T03:31:58;10.50;99.90
9305;DHT22;4690;52.422;13.486;2023-04-29T03:34:24;10.50;99.90
9305;DHT22;4690;52.422;13.486;2023-04-29T03:36:50;10.40;99.90
9305;DHT22;4690;52.422;13.486;2023-04-29T03:39:16;10.50;99.90
9305;DHT22;4690;52.422;13.486;2023-04-29T03:41:42;10.40;99.90
9305;DHT22;4690;52.422;13.486;2023-04-29T03:44:08;10.50;99.90
9305;DHT22;4690;52.422;13.486;2023-04-29T03:46:34;10.50;99.90
9305;DHT22;4690;52.422;13.486;2023-04-29T03:49:00;10.40;99.90
9305;DHT22;4690;52.422;13.486;2023-04-29T03:51:26;10.40;99.90
9305;DHT22;4690;52.422;13.486;2023-04-29T03:53:53;10.40;99.90
9305;DHT22;4690;52.422;13.486;2023-04-29T03:56:23;10.50;99.90
9305;DHT22;4690;52.422;13.486;2023-04-29T03:58:51;10.50;99.90
9305;DHT22;4690;52.422;13.486;2023-04-29T04:01:17;10.50;99.90
9305;DHT22;4690;52.422;13.486;2023-04-29T04:03:43;10.50;99.90
9305;DHT22;4690;52.422;13.486;2023-04-29T04:06:09;10.50;99.90
9305;DHT22;4690;52.422;13.486;2023-04-29T04:08:35;10.60;99.90
9305;DHT22;4690;52.422;13.486;2023-04-29T04:11:01;10.50;99.90
9305;DHT22;4690;52.422;13.486;2023-04-29T04:13:29;10.60;99.90
9305;DHT22;4690;52.422;13.486;2023-04-29T04:15:55;10.60;99.90
9305;DHT22;4690;52.422;13.486;2023-04-29T04:18:22;10.60;99.90
9305;DHT22;4690;52.422;13.486;2023-04-29T04:20:47;10.60;99.90
9305;DHT22;4690;52.422;13.486;2023-04-29T04:23:13;10.70;99.90
9305;DHT22;4690;52.422;13.486;2023-04-29T04:25:46;10.60;99.90
9305;DHT22;4690;52.422;13.486;2023-04-29T04:28:12;10.70;99.90
9305;DHT22;4690;52.422;13.486;2023-04-29T04:30:41;10.70;99.90
9305;DHT22;4690;52.422;13.486;2023-04-29T04:33:07;10.70;99.90
9305;DHT22;4690;52.422;13.486;2023-04-29T04:35:35;10.70;99.90
9305;DHT22;4690;52.422;13.486;2023-04-29T04:38:00;10.70;99.90
9305;DHT22;4690;52.422;13.486;2023-04-29T04:40:26;10.80;99.90
9305;DHT22;4690;52.422;13.486;2023-04-29T04:42:52;10.80;99.90
9305;DHT22;4690;52.422;13.486;2023-04-29T04:45:18;10.80;99.90
9305;DHT22;4690;52.422;13.486;2023-04-29T04:47:43;10.80;99.90
9305;DHT22;4690;52.422;13.486;2023-04-29T04:50:09;10.90;99.90
9305;DHT22;4690;52.422;13.486;2023-04-29T04:52:35;10.90;99.90
9305;DHT22;4690;52.422;13.486;2023-04-29T04:55:01;10.90;99.90
9305;DHT22;4690;52.422;13.486;2023-04-29T04:57:27;10.90;99.90
9305;DHT22;4690;52.422;13.486;2023-04-29T04:59:52;10.90;99.90
9305;DHT22;4690;52.422;13.486;2023-04-29T05:02:18;10.90;99.90
9305;DHT22;4690;52.422;13.486;2023-04-29T05:04:44;10.90;99.90
9305;DHT22;4690;52.422;13.486;2023-04-29T05:07:10;11.00;99.90
9305;DHT22;4690;52.422;13.486;2023-04-29T05:09:36;11.00;99.90
9305;DHT22;4690;52.422;13.486;2023-04-29T05:12:02;10.90;99.90
9305;DHT22;4690;52.422;13.486;2023-04-29T05:14:28;11.00;99.90
9305;DHT22;4690;52.422;13.486;2023-04-29T05:16:58;11.00;99.90
9305;DHT22;4690;52.422;13.486;2023-04-29T05:19:24;11.00;99.90
9305;DHT22;4690;52.422;13.486;2023-04-29T05:21:51;11.00;99.90
9305;DHT22;4690;52.422;13.486;2023-04-29T05:24:16;11.10;99.90
9305;DHT22;4690;52.422;13.486;2023-04-29T05:26:42;11.20;99.90
9305;DHT22;4690;52.422;13.486;2023-04-29T05:29:09;11.20;99.90
9305;DHT22;4690;52.422;13.486;2023-04-29T05:31:36;11.20;99.90
9305;DHT22;4690;52.422;13.486;2023-04-29T05:34:05;11.20;99.90
9305;DHT22;4690;52.422;13.486;2023-04-29T05:36:31;11.30;99.90
9305;DHT22;4690;52.422;13.486;2023-04-29T05:38:57;11.20;99.90
9305;DHT22;4690;52.422;13.486;2023-04-29T05:41:23;11.30;99.90
9305;DHT22;4690;52.422;13.486;2023-04-29T05:43:50;11.40;99.90
9305;DHT22;4690;52.422;13.486;2023-04-29T05:46:16;11.30;99.90
9305;DHT22;4690;52.422;13.486;2023-04-29T05:48:42;11.40;99.90
9305;DHT22;4690;52.422;13.486;2023-04-29T05:51:08;11.40;99.90
9305;DHT22;4690;52.422;13.486;2023-04-29T05:53:33;11.40;99.90
9305;DHT22;4690;52.422;13.486;2023-04-29T05:56:00;11.50;99.90
9305;DHT22;4690;52.422;13.486;2023-04-29T05:58:30;11.50;99.90
9305;DHT22;4690;52.422;13.486;2023-04-29T06:00:56;11.50;99.90
9305;DHT22;4690;52.422;13.486;2023-04-29T06:03:22;11.60;99.90
9305;DHT22;4690;52.422;13.486;2023-04-29T06:05:48;11.60;99.90
9305;DHT22;4690;52.422;13.486;2023-04-29T06:08:14;11.60;99.90
9305;DHT22;4690;52.422;13.486;2023-04-29T06:10:40;11.60;99.90
9305;DHT22;4690;52.422;13.486;2023-04-29T06:13:05;11.60;99.90
9305;DHT22;4690;52.422;13.486;2023-04-29T06:15:31;11.60;99.90
9305;DHT22;4690;52.422;13.486;2023-04-29T06:17:57;11.60;99.90
9305;DHT22;4690;52.422;13.486;2023-04-29T06:20:23;11.70;99.90
9305;DHT22;4690;52.422;13.486;2023-04-29T06:22:49;11.70;99.90
9305;DHT22;4690;52.422;13.486;2023-04-29T06:25:15;11.70;99.90
9305;DHT22;4690;52.422;13.486;2023-04-29T06:27:40;11.80;99.90
9305;DHT22;4690;52.422;13.486;2023-04-29T06:30:07;11.80;99.90
9305;DHT22;4690;52.422;13.486;2023-04-29T06:32:33;11.80;99.90
9305;DHT22;4690;52.422;13.486;2023-04-29T06:34:59;11.90;99.90
9305;DHT22;4690;52.422;13.486;2023-04-29T06:37:25;11.90;99.90
9305;DHT22;4690;52.422;13.486;2023-04-29T06:39:52;11.90;99.90
9305;DHT22;4690;52.422;13.486;2023-04-29T06:42:17;11.90;99.90
9305;DHT22;4690;52.422;13.486;2023-04-29T06:44:43;12.00;99.90
9305;DHT22;4690;52.422;13.486;2023-04-29T06:47:09;12.00;99.90
9305;DHT22;4690;52.422;13.486;2023-04-29T06:49:35;12.00;99.90
9305;DHT22;4690;52.422;13.486;2023-04-29T06:52:01;12.00;99.90
9305;DHT22;4690;52.422;13.486;2023-04-29T06:54:27;12.00;99.90
9305;DHT22;4690;52.422;13.486;2023-04-29T06:56:54;12.00;99.90
9305;DHT22;4690;52.422;13.486;2023-04-29T06:59:20;12.00;99.90
9305;DHT22;4690;52.422;13.486;2023-04-29T07:01:46;12.00;99.90
9305;DHT22;4690;52.422;13.486;2023-04-29T07:04:11;12.00;99.90
9305;DHT22;4690;52.422;13.486;2023-04-29T07:06:37;12.10;99.90
9305;DHT22;4690;52.422;13.486;2023-04-29T07:09:03;12.10;99.90
9305;DHT22;4690;52.422;13.486;2023-04-29T07:11:29;12.10;99.90
9305;DHT22;4690;52.422;13.486;2023-04-29T07:13:55;12.10;99.90
9305;DHT22;4690;52.422;13.486;2023-04-29T07:16:21;12.10;99.90
9305;DHT22;4690;52.422;13.486;2023-04-29T07:18:47;12.20;99.90
9305;DHT22;4690;52.422;13.486;2023-04-29T07:21:15;12.20;99.90
9305;DHT22;4690;52.422;13.486;2023-04-29T07:23:42;12.20;99.90
9305;DHT22;4690;52.422;13.486;2023-04-29T07:26:12;12.20;99.90
9305;DHT22;4690;52.422;13.486;2023-04-29T07:28:39;12.20;99.90
9305;DHT22;4690;52.422;13.486;2023-04-29T07:31:06;12.30;99.90
9305;DHT22;4690;52.422;13.486;2023-04-29T07:33:33;12.40;99.90
9305;DHT22;4690;52.422;13.486;2023-04-29T07:36:00;12.40;99.90
9305;DHT22;4690;52.422;13.486;2023-04-29T07:38:26;12.40;99.90
9305;DHT22;4690;52.422;13.486;2023-04-29T07:40:53;12.40;99.90
9305;DHT22;4690;52.422;13.486;2023-04-29T07:43:19;12.30;99.90
9305;DHT22;4690;52.422;13.486;2023-04-29T07:45:46;12.30;99.90
9305;DHT22;4690;52.422;13.486;2023-04-29T07:48:12;12.30;99.90
9305;DHT22;4690;52.422;13.486;2023-04-29T07:50:38;12.20;99.90
9305;DHT22;4690;52.422;13.486;2023-04-29T07:53:04;12.20;99.90
9305;DHT22;4690;52.422;13.486;2023-04-29T07:55:30;12.20;99.90
9305;DHT22;4690;52.422;13.486;2023-04-29T07:57:57;12.20;99.90
9305;DHT22;4690;52.422;13.486;2023-04-29T08:00:23;12.20;99.90
9305;DHT22;4690;52.422;13.486;2023-04-29T08:02:53;12.20;99.90
9305;DHT22;4690;52.422;13.486;2023-04-29T08:05:21;12.00;99.90
9305;DHT22;4690;52.422;13.486;2023-04-29T08:07:48;12.00;99.90
9305;DHT22;4690;52.422;13.486;2023-04-29T08:10:15;12.00;99.90
9305;DHT22;4690;52.422;13.486;2023-04-29T08:12:44;12.00;99.90
9305;DHT22;4690;52.422;13.486;2023-04-29T08:15:11;12.00;99.90
9305;DHT22;4690;52.422;13.486;2023-04-29T08:17:37;11.90;99.90
9305;DHT22;4690;52.422;13.486;2023-04-29T08:20:03;11.90;99.90
9305;DHT22;4690;52.422;13.486;2023-04-29T08:22:29;11.90;99.90
9305;DHT22;4690;52.422;13.486;2023-04-29T08:24:55;11.90;99.90
9305;DHT22;4690;52.422;13.486;2023-04-29T08:27:20;11.90;99.90
9305;DHT22;4690;52.422;13.486;2023-04-29T08:29:46;11.90;99.90
9305;DHT22;4690;52.422;13.486;2023-04-29T08:32:12;11.80;99.90
9305;DHT22;4690;52.422;13.486;2023-04-29T08:34:38;11.80;99.90
9305;DHT22;4690;52.422;13.486;2023-04-29T08:37:05;11.90;99.90
9305;DHT22;4690;52.422;13.486;2023-04-29T08:39:31;11.90;99.90
9305;DHT22;4690;52.422;13.486;2023-04-29T08:41:58;11.90;99.90
9305;DHT22;4690;52.422;13.486;2023-04-29T08:44:27;11.80;99.90
9305;DHT22;4690;52.422;13.486;2023-04-29T08:46:54;11.80;99.90
9305;DHT22;4690;52.422;13.486;2023-04-29T08:49:23;11.60;99.90
9305;DHT22;4690;52.422;13.486;2023-04-29T08:51:49;11.70;99.90
9305;DHT22;4690;52.422;13.486;2023-04-29T08:54:16;11.60;99.90
9305;DHT22;4690;52.422;13.486;2023-04-29T08:56:45;11.70;99.90
9305;DHT22;4690;52.422;13.486;2023-04-29T08:59:14;11.70;99.90
9305;DHT22;4690;52.422;13.486;2023-04-29T09:01:43;11.70;99.90
9305;DHT22;4690;52.422;13.486;2023-04-29T09:04:29;11.70;99.90
9305;DHT22;4690;52.422;13.486;2023-04-29T09:07:05;11.70;99.90
9305;DHT22;4690;52.422;13.486;2023-04-29T09:09:33;11.70;99.90
9305;DHT22;4690;52.422;13.486;2023-04-29T09:12:00;11.70;99.90
9305;DHT22;4690;52.422;13.486;2023-04-29T09:14:28;11.70;99.90
9305;DHT22;4690;52.422;13.486;2023-04-29T09:16:59;11.70;99.90
9305;DHT22;4690;52.422;13.486;2023-04-29T09:19:32;11.70;99.90
9305;DHT22;4690;52.422;13.486;2023-04-29T09:22:00;11.80;99.90
9305;DHT22;4690;52.422;13.486;2023-04-29T09:24:28;11.80;99.90
9305;DHT22;4690;52.422;13.486;2023-04-29T09:26:56;11.80;99.90
9305;DHT22;4690;52.422;13.486;2023-04-29T09:29:23;11.70;99.90
9305;DHT22;4690;52.422;13.486;2023-04-29T09:31:50;11.70;99.90
9305;DHT22;4690;52.422;13.486;2023-04-29T09:34:38;11.70;99.90
9305;DHT22;4690;52.422;13.486;2023-04-29T09:37:25;11.80;99.90
9305;DHT22;4690;52.422;13.486;2023-04-29T09:39:53;11.80;99.90
9305;DHT22;4690;52.422;13.486;2023-04-29T09:42:19;11.80;99.90
9305;DHT22;4690;52.422;13.486;2023-04-29T09:44:45;11.80;99.90
9305;DHT22;4690;52.422;13.486;2023-04-29T09:47:11;11.80;99.90
9305;DHT22;4690;52.422;13.486;2023-04-29T09:49:42;11.90;99.90
9305;DHT22;4690;52.422;13.486;2023-04-29T09:52:12;11.90;99.90
9305;DHT22;4690;52.422;13.486;2023-04-29T09:54:41;11.90;99.90
9305;DHT22;4690;52.422;13.486;2023-04-29T09:57:09;11.80;99.90
9305;DHT22;4690;52.422;13.486;2023-04-29T09:59:38;11.80;99.90
9305;DHT22;4690;52.422;13.486;2023-04-29T10:02:18;11.80;99.90
9305;DHT22;4690;52.422;13.486;2023-04-29T10:04:46;11.70;99.90
9305;DHT22;4690;52.422;13.486;2023-04-29T10:07:18;11.70;99.90
9305;DHT22;4690;52.422;13.486;2023-04-29T10:09:46;11.80;99.90
9305;DHT22;4690;52.422;13.486;2023-04-29T10:12:16;11.70;99.90
9305;DHT22;4690;52.422;13.486;2023-04-29T10:14:49;11.70;99.90
9305;DHT22;4690;52.422;13.486;2023-04-29T10:20:38;11.70;99.90
9305;DHT22;4690;52.422;13.486;2023-04-29T10:23:16;11.60;99.90
9305;DHT22;4690;52.422;13.486;2023-04-29T10:25:45;11.50;99.90
9305;DHT22;4690;52.422;13.486;2023-04-29T10:28:14;11.50;99.90
9305;DHT22;4690;52.422;13.486;2023-04-29T10:30:43;11.50;99.90
9305;DHT22;4690;52.422;13.486;2023-04-29T10:33:11;11.40;99.90
9305;DHT22;4690;52.422;13.486;2023-04-29T10:35:37;11.40;99.90
9305;DHT22;4690;52.422;13.486;2023-04-29T10:38:12;11.50;99.90
9305;DHT22;4690;52.422;13.486;2023-04-29T10:40:50;11.50;99.90
9305;DHT22;4690;52.422;13.486;2023-04-29T10:43:24;11.50;99.90
9305;DHT22;4690;52.422;13.486;2023-04-29T10:46:17;11.60;99.90
9305;DHT22;4690;52.422;13.486;2023-04-29T10:48:46;11.60;99.90
9305;DHT22;4690;52.422;13.486;2023-04-29T10:51:27;11.50;99.90
9305;DHT22;4690;52.422;13.486;2023-04-29T10:54:09;11.60;99.90
9305;DHT22;4690;52.422;13.486;2023-04-29T10:56:51;11.60;99.90
9305;DHT22;4690;52.422;13.486;2023-04-29T11:02:09;11.50;99.90
9305;DHT22;4690;52.422;13.486;2023-04-29T11:05:08;11.50;99.90
9305;DHT22;4690;52.422;13.486;2023-04-29T11:07:35;11.50;99.90
9305;DHT22;4690;52.422;13.486;2023-04-29T11:10:01;11.50;99.90
9305;DHT22;4690;52.422;13.486;2023-04-29T11:12:27;11.60;99.90
9305;DHT22;4690;52.422;13.486;2023-04-29T11:14:53;11.50;99.90
9305;DHT22;4690;52.422;13.486;2023-04-29T11:17:35;11.60;99.90
9305;DHT22;4690;52.422;13.486;2023-04-29T11:20:10;11.80;99.90
9305;DHT22;4690;52.422;13.486;2023-04-29T11:22:38;11.60;99.90
9305;DHT22;4690;52.422;13.486;2023-04-29T11:25:05;11.60;99.90
9305;DHT22;4690;52.422;13.486;2023-04-29T11:27:36;11.70;99.90
9305;DHT22;4690;52.422;13.486;2023-04-29T11:30:05;11.70;99.90
9305;DHT22;4690;52.422;13.486;2023-04-29T11:32:34;11.90;99.90
9305;DHT22;4690;52.422;13.486;2023-04-29T11:35:12;12.00;99.90
9305;DHT22;4690;52.422;13.486;2023-04-29T11:37:41;12.00;99.90
9305;DHT22;4690;52.422;13.486;2023-04-29T11:40:08;12.00;99.90
9305;DHT22;4690;52.422;13.486;2023-04-29T11:42:43;11.90;99.90
9305;DHT22;4690;52.422;13.486;2023-04-29T11:45:11;11.90;99.90
9305;DHT22;4690;52.422;13.486;2023-04-29T11:47:42;11.90;99.90
9305;DHT22;4690;52.422;13.486;2023-04-29T11:50:13;11.90;99.90
9305;DHT22;4690;52.422;13.486;2023-04-29T11:52:42;12.00;99.90
9305;DHT22;4690;52.422;13.486;2023-04-29T11:55:09;12.00;99.90
9305;DHT22;4690;52.422;13.486;2023-04-29T11:57:37;12.10;99.90
9305;DHT22;4690;52.422;13.486;2023-04-29T12:00:07;12.30;99.90
9305;DHT22;4690;52.422;13.486;2023-04-29T12:02:37;12.40;99.90
9305;DHT22;4690;52.422;13.486;2023-04-29T12:05:06;12.60;99.90
9305;DHT22;4690;52.422;13.486;2023-04-29T12:07:37;12.70;99.90
9305;DHT22;4690;52.422;13.486;2023-04-29T12:10:07;12.70;99.90
9305;DHT22;4690;52.422;13.486;2023-04-29T12:12:35;12.50;99.90
9305;DHT22;4690;52.422;13.486;2023-04-29T12:15:05;12.70;99.90
9305;DHT22;4690;52.422;13.486;2023-04-29T12:17:32;12.70;99.90
9305;DHT22;4690;52.422;13.486;2023-04-29T12:19:59;12.90;99.90
9305;DHT22;4690;52.422;13.486;2023-04-29T12:22:31;12.90;99.90
9305;DHT22;4690;52.422;13.486;2023-04-29T12:24:57;13.00;99.90
9305;DHT22;4690;52.422;13.486;2023-04-29T12:27:23;13.10;99.90
9305;DHT22;4690;52.422;13.486;2023-04-29T12:29:51;12.80;99.90
9305;DHT22;4690;52.422;13.486;2023-04-29T12:32:21;12.80;99.90
9305;DHT22;4690;52.422;13.486;2023-04-29T12:34:50;12.80;99.90
9305;DHT22;4690;52.422;13.486;2023-04-29T12:37:21;12.70;99.90
9305;DHT22;4690;52.422;13.486;2023-04-29T12:39:49;12.60;99.90
9305;DHT22;4690;52.422;13.486;2023-04-29T12:42:15;12.40;99.90
9305;DHT22;4690;52.422;13.486;2023-04-29T12:44:44;12.30;99.90
9305;DHT22;4690;52.422;13.486;2023-04-29T12:47:13;12.30;99.90
9305;DHT22;4690;52.422;13.486;2023-04-29T12:49:44;12.20;99.90
9305;DHT22;4690;52.422;13.486;2023-04-29T12:52:11;12.20;99.90
9305;DHT22;4690;52.422;13.486;2023-04-29T12:54:38;12.10;99.90
9305;DHT22;4690;52.422;13.486;2023-04-29T12:57:08;12.20;99.90
9305;DHT22;4690;52.422;13.486;2023-04-29T12:59:35;12.20;99.90
9305;DHT22;4690;52.422;13.486;2023-04-29T13:02:01;12.30;99.90
9305;DHT22;4690;52.422;13.486;2023-04-29T13:04:27;12.40;99.90
9305;DHT22;4690;52.422;13.486;2023-04-29T13:06:53;12.50;99.90
9305;DHT22;4690;52.422;13.486;2023-04-29T13:09:27;12.60;99.90
9305;DHT22;4690;52.422;13.486;2023-04-29T13:11:53;12.70;99.90
9305;DHT22;4690;52.422;13.486;2023-04-29T13:14:19;12.70;99.90
9305;DHT22;4690;52.422;13.486;2023-04-29T13:16:45;12.80;99.90
9305;DHT22;4690;52.422;13.486;2023-04-29T13:19:10;12.70;99.90
9305;DHT22;4690;52.422;13.486;2023-04-29T13:21:37;12.70;99.90
9305;DHT22;4690;52.422;13.486;2023-04-29T13:24:04;12.80;99.90
9305;DHT22;4690;52.422;13.486;2023-04-29T13:26:29;12.80;99.90
9305;DHT22;4690;52.422;13.486;2023-04-29T13:28:55;13.00;99.90
9305;DHT22;4690;52.422;13.486;2023-04-29T13:31:21;13.10;99.90
9305;DHT22;4690;52.422;13.486;2023-04-29T13:33:47;13.10;99.90
9305;DHT22;4690;52.422;13.486;2023-04-29T13:36:13;13.20;99.90
9305;DHT22;4690;52.422;13.486;2023-04-29T13:38:39;13.20;99.90
9305;DHT22;4690;52.422;13.486;2023-04-29T13:41:06;13.30;99.90
9305;DHT22;4690;52.422;13.486;2023-04-29T13:43:32;13.30;99.90
9305;DHT22;4690;52.422;13.486;2023-04-29T13:45:57;13.50;99.90
9305;DHT22;4690;52.422;13.486;2023-04-29T13:48:23;13.50;99.90
9305;DHT22;4690;52.422;13.486;2023-04-29T13:50:49;13.40;99.90
9305;DHT22;4690;52.422;13.486;2023-04-29T13:53:15;13.60;99.90
9305;DHT22;4690;52.422;13.486;2023-04-29T13:55:43;13.50;99.90
9305;DHT22;4690;52.422;13.486;2023-04-29T13:58:09;13.40;99.90
9305;DHT22;4690;52.422;13.486;2023-04-29T14:00:35;13.40;99.90
9305;DHT22;4690;52.422;13.486;2023-04-29T14:03:00;13.40;99.90
9305;DHT22;4690;52.422;13.486;2023-04-29T14:05:27;13.30;99.90
9305;DHT22;4690;52.422;13.486;2023-04-29T14:07:53;13.40;99.90
9305;DHT22;4690;52.422;13.486;2023-04-29T14:10:19;13.30;99.90
9305;DHT22;4690;52.422;13.486;2023-04-29T14:12:46;13.40;99.90
9305;DHT22;4690;52.422;13.486;2023-04-29T14:15:13;13.30;99.90
9305;DHT22;4690;52.422;13.486;2023-04-29T14:17:39;13.40;99.90
9305;DHT22;4690;52.422;13.486;2023-04-29T14:20:05;13.50;99.90
9305;DHT22;4690;52.422;13.486;2023-04-29T14:22:32;13.50;99.90
9305;DHT22;4690;52.422;13.486;2023-04-29T14:24:58;13.40;99.90
9305;DHT22;4690;52.422;13.486;2023-04-29T14:27:24;13.30;99.90
9305;DHT22;4690;52.422;13.486;2023-04-29T14:29:49;13.30;99.90
9305;DHT22;4690;52.422;13.486;2023-04-29T14:32:15;13.30;99.90
9305;DHT22;4690;52.422;13.486;2023-04-29T14:34:41;13.30;99.90
9305;DHT22;4690;52.422;13.486;2023-04-29T14:37:07;13.30;99.90
9305;DHT22;4690;52.422;13.486;2023-04-29T14:39:32;13.50;99.90
9305;DHT22;4690;52.422;13.486;2023-04-29T14:41:58;13.80;99.90
9305;DHT22;4690;52.422;13.486;2023-04-29T14:44:24;14.10;99.90
9305;DHT22;4690;52.422;13.486;2023-04-29T14:46:49;14.10;99.90
9305;DHT22;4690;52.422;13.486;2023-04-29T14:49:15;14.20;99.90
9305;DHT22;4690;52.422;13.486;2023-04-29T14:51:41;14.30;99.90
9305;DHT22;4690;52.422;13.486;2023-04-29T14:54:07;14.50;99.90
9305;DHT22;4690;52.422;13.486;2023-04-29T14:56:33;14.50;99.90
9305;DHT22;4690;52.422;13.486;2023-04-29T14:59:01;14.50;99.90
9305;DHT22;4690;52.422;13.486;2023-04-29T15:01:26;14.60;99.90
9305;DHT22;4690;52.422;13.486;2023-04-29T15:03:52;14.70;99.90
9305;DHT22;4690;52.422;13.486;2023-04-29T15:06:18;14.80;99.90
9305;DHT22;4690;52.422;13.486;2023-04-29T15:08:44;14.90;99.90
9305;DHT22;4690;52.422;13.486;2023-04-29T15:11:11;15.00;99.90
9305;DHT22;4690;52.422;13.486;2023-04-29T15:13:36;15.20;99.90
9305;DHT22;4690;52.422;13.486;2023-04-29T15:16:03;15.30;99.90
9305;DHT22;4690;52.422;13.486;2023-04-29T15:18:29;15.30;99.90
9305;DHT22;4690;52.422;13.486;2023-04-29T15:20:54;15.30;99.90
9305;DHT22;4690;52.422;13.486;2023-04-29T15:23:20;15.40;99.90
9305;DHT22;4690;52.422;13.486;2023-04-29T15:25:46;15.40;99.90
9305;DHT22;4690;52.422;13.486;2023-04-29T15:28:12;15.20;99.90
9305;DHT22;4690;52.422;13.486;2023-04-29T15:30:37;15.10;99.90
9305;DHT22;4690;52.422;13.486;2023-04-29T15:33:03;15.00;99.90
9305;DHT22;4690;52.422;13.486;2023-04-29T15:35:29;15.00;99.90
9305;DHT22;4690;52.422;13.486;2023-04-29T15:37:54;14.90;99.90
9305;DHT22;4690;52.422;13.486;2023-04-29T15:40:20;14.80;99.90
9305;DHT22;4690;52.422;13.486;2023-04-29T15:42:46;14.80;99.90
9305;DHT22;4690;52.422;13.486;2023-04-29T15:45:12;14.80;99.90
9305;DHT22;4690;52.422;13.486;2023-04-29T15:47:38;14.80;99.90
9305;DHT22;4690;52.422;13.486;2023-04-29T15:50:04;14.90;99.90
9305;DHT22;4690;52.422;13.486;2023-04-29T15:52:30;14.80;99.90
9305;DHT22;4690;52.422;13.486;2023-04-29T15:54:56;14.80;99.90
9305;DHT22;4690;52.422;13.486;2023-04-29T15:57:22;14.80;99.90
9305;DHT22;4690;52.422;13.486;2023-04-29T15:59:50;14.70;99.90
9305;DHT22;4690;52.422;13.486;2023-04-29T16:02:15;14.70;99.90
9305;DHT22;4690;52.422;13.486;2023-04-29T16:04:41;14.80;99.90
9305;DHT22;4690;52.422;13.486;2023-04-29T16:07:07;14.70;99.90
9305;DHT22;4690;52.422;13.486;2023-04-29T16:09:34;14.70;99.90
9305;DHT22;4690;52.422;13.486;2023-04-29T16:12:00;14.60;99.90
9305;DHT22;4690;52.422;13.486;2023-04-29T16:14:29;14.60;99.90